Terminal Aerodrome Forecast
Issued by NWS

Current Version | Previous Version | Text Only | Print | Product List | Glossary On
Versions: 1 2 3 4 5 6 7 8 9 10 11 12 13 14 15 16 17 18 19 20 21 22 23 24 25 26 27 28 29 30 31 32 33 34 35
000
FTUS45 KGJT 230529
TAFEGE
TAFEGE
TAF
KEGE 230529Z 2306/2406 09005KT P6SM VCSH SCT050 BKN100
      TEMPO 2307/2309 -RA BKN050
     FM231200 VRB03KT P6SM SCT070 BKN100
     FM231900 23008KT P6SM VCSH OVC080
     FM232100 23014G20KT P6SM VCTS SCT050 BKN080CB
     FM240300 09004KT P6SM VCSH SCT050 BKN090
      AMD LTD TO CLD VIS AND WIND TIL 231300=

USA.gov is the U.S. government's official web portal to all federal, state and local government web resources and services.